createdAt,value
2018-01-20T00:00:24.878Z,1001.02
2018-01-20T00:02:17.833Z,1000.98
2018-01-20T00:03:17.805Z,1001.02
2018-01-20T00:05:10.746Z,1000.98
2018-01-20T00:06:10.681Z,1000.98
2018-01-20T00:08:03.516Z,1001.02
2018-01-20T00:09:03.451Z,1001.00
2018-01-20T00:10:56.487Z,1000.97
2018-01-20T00:11:56.346Z,1000.96
2018-01-20T00:13:49.281Z,1000.99
2018-01-20T00:14:49.246Z,1000.92
2018-01-20T00:16:42.192Z,1000.96
2018-01-20T00:17:42.137Z,1000.94
2018-01-20T00:19:35.000Z,1000.92
2018-01-20T00:20:34.945Z,1000.92
2018-01-20T00:22:27.909Z,1000.93
2018-01-20T00:23:27.851Z,1000.93
2018-01-20T00:25:20.641Z,1000.95
2018-01-20T00:26:20.596Z,1000.92
2018-01-20T00:28:13.560Z,1000.91
2018-01-20T00:29:13.508Z,1000.93
2018-01-20T00:31:06.635Z,1000.88
2018-01-20T00:32:06.552Z,1000.86
2018-01-20T00:33:59.504Z,1000.86
2018-01-20T00:34:59.445Z,1000.86
2018-01-20T00:36:52.390Z,1000.83
2018-01-20T00:37:52.357Z,1000.81
2018-01-20T00:39:45.660Z,1000.78
2018-01-20T00:40:45.609Z,1000.83
2018-01-20T00:42:38.402Z,1000.81
2018-01-20T00:43:38.345Z,1000.79
2018-01-20T00:45:31.289Z,1000.75
2018-01-20T00:46:31.257Z,1000.71
2018-01-20T00:48:24.080Z,1000.73
2018-01-20T00:49:24.023Z,1000.72
2018-01-20T00:51:16.957Z,1000.70
2018-01-20T00:52:16.912Z,1000.78
2018-01-20T00:54:09.930Z,1000.69
2018-01-20T00:55:09.858Z,1000.77
2018-01-20T00:57:02.792Z,1000.73
2018-01-20T00:58:02.749Z,1000.72
2018-01-20T00:59:55.822Z,1000.72
2018-01-20T01:00:55.640Z,1000.69
2018-01-20T01:02:48.584Z,1000.67
2018-01-20T01:03:48.536Z,1000.70
2018-01-20T01:05:41.495Z,1000.64
2018-01-20T01:06:41.442Z,1000.66
2018-01-20T01:08:34.247Z,1000.57
2018-01-20T01:09:34.175Z,1000.61
2018-01-20T01:11:27.319Z,1000.60
2018-01-20T01:12:27.269Z,1000.60
2018-01-20T01:14:20.228Z,1000.64
2018-01-20T01:15:20.171Z,1000.68
2018-01-20T01:17:13.111Z,1000.69
2018-01-20T01:18:13.068Z,1000.62
2018-01-20T01:20:05.890Z,1000.68
2018-01-20T01:21:05.826Z,1000.68
2018-01-20T01:22:58.634Z,1000.68
2018-01-20T01:23:58.587Z,1000.70
2018-01-20T01:25:51.427Z,1000.68
2018-01-20T01:26:51.335Z,1000.65
2018-01-20T01:28:44.291Z,1000.64
2018-01-20T01:29:44.245Z,1000.66
2018-01-20T01:31:37.227Z,1000.62
2018-01-20T01:32:37.167Z,1000.60
2018-01-20T01:34:30.088Z,1000.62
2018-01-20T01:35:30.041Z,1000.58
2018-01-20T01:37:23.037Z,1000.62
2018-01-20T01:38:22.977Z,1000.59
2018-01-20T01:40:15.786Z,1000.56
2018-01-20T01:41:15.740Z,1000.58
2018-01-20T01:43:08.697Z,1000.55
2018-01-20T01:44:08.652Z,1000.53
2018-01-20T01:46:01.467Z,1000.50
2018-01-20T01:47:01.421Z,1000.52
2018-01-20T01:48:54.441Z,1000.50
2018-01-20T01:49:54.367Z,1000.52
2018-01-20T01:51:47.186Z,1000.51
2018-01-20T01:52:47.125Z,1000.54
2018-01-20T01:54:40.083Z,1000.58
2018-01-20T01:55:40.037Z,1000.60
2018-01-20T01:57:33.240Z,1000.55
2018-01-20T01:58:33.117Z,1000.58
2018-01-20T02:00:26.072Z,1000.59
2018-01-20T02:01:26.037Z,1000.58
2018-01-20T02:03:18.986Z,1000.54
2018-01-20T02:04:18.930Z,1000.50
2018-01-20T02:06:12.123Z,1000.52
2018-01-20T02:07:12.010Z,1000.49
2018-01-20T02:09:04.980Z,1000.49
2018-01-20T02:10:04.915Z,1000.50
2018-01-20T02:11:57.861Z,1000.52
2018-01-20T02:12:57.837Z,1000.56
2018-01-20T02:14:51.021Z,1000.54
2018-01-20T02:15:50.886Z,1000.54
2018-01-20T02:17:43.834Z,1000.57
2018-01-20T02:18:43.785Z,1000.56
2018-01-20T02:20:36.752Z,1000.59
2018-01-20T02:21:36.692Z,1000.63
2018-01-20T02:23:29.873Z,1000.57
2018-01-20T02:24:29.782Z,1000.58
2018-01-20T02:26:22.718Z,1000.58
2018-01-20T02:27:22.686Z,1000.54
2018-01-20T02:29:15.635Z,1000.53
2018-01-20T02:30:15.582Z,1000.60
2018-01-20T02:32:08.518Z,1000.56
2018-01-20T02:33:08.465Z,1000.53
2018-01-20T02:35:01.407Z,1000.54
2018-01-20T02:36:01.356Z,1000.53
2018-01-20T02:37:54.300Z,1000.52
2018-01-20T02:38:54.253Z,1000.49
2018-01-20T02:40:47.503Z,1000.48
2018-01-20T02:41:47.345Z,1000.43
2018-01-20T02:43:40.455Z,1000.42
2018-01-20T02:44:40.392Z,1000.42
2018-01-20T02:46:33.372Z,1000.45
2018-01-20T02:47:33.337Z,1000.40
2018-01-20T02:49:26.147Z,1000.40
2018-01-20T02:50:26.086Z,1000.39
2018-01-20T02:52:18.951Z,1000.32
2018-01-20T02:53:18.861Z,1000.32
2018-01-20T02:55:11.842Z,1000.29
2018-01-20T02:56:11.771Z,1000.30
2018-01-20T02:58:04.700Z,1000.30
2018-01-20T02:59:04.750Z,1000.30
2018-01-20T03:00:57.813Z,1000.29
2018-01-20T03:01:57.776Z,1000.32
2018-01-20T03:03:50.561Z,1000.34
2018-01-20T03:04:50.504Z,1000.31
2018-01-20T03:06:43.466Z,1000.26
2018-01-20T03:07:43.416Z,1000.27
2018-01-20T03:09:36.361Z,1000.25
2018-01-20T03:10:36.322Z,1000.23
2018-01-20T03:12:29.291Z,1000.25
2018-01-20T03:13:29.132Z,1000.23
2018-01-20T03:15:22.097Z,1000.18
2018-01-20T03:16:22.042Z,1000.22
2018-01-20T03:18:14.975Z,1000.17
2018-01-20T03:19:14.943Z,1000.16
2018-01-20T03:21:08.253Z,1000.11
2018-01-20T03:22:08.034Z,1000.11
2018-01-20T03:24:00.971Z,1000.07
2018-01-20T03:25:00.933Z,1000.06
2018-01-20T03:26:53.885Z,1000.01
2018-01-20T03:27:53.907Z,999.97
2018-01-20T03:29:47.082Z,999.98
2018-01-20T03:30:46.946Z,999.96
2018-01-20T03:32:39.908Z,999.94
2018-01-20T03:33:39.838Z,999.92
2018-01-20T03:35:32.806Z,999.91
2018-01-20T03:36:32.751Z,999.86
2018-01-20T03:38:25.902Z,999.85
2018-01-20T03:39:25.829Z,999.86
2018-01-20T03:41:18.767Z,999.89
2018-01-20T03:42:18.728Z,999.85
2018-01-20T03:44:11.695Z,999.84
2018-01-20T03:45:11.627Z,999.80
2018-01-20T03:47:04.968Z,999.78
2018-01-20T03:48:04.903Z,999.75
2018-01-20T03:49:57.852Z,999.73
2018-01-20T03:50:57.871Z,999.75
2018-01-20T03:52:50.628Z,999.70
2018-01-20T03:53:50.576Z,999.71
2018-01-20T03:55:43.468Z,999.67
2018-01-20T03:56:43.406Z,999.70
2018-01-20T03:58:36.392Z,999.67
2018-01-20T03:59:36.325Z,999.63
2018-01-20T04:01:29.277Z,999.57
2018-01-20T04:02:29.237Z,999.58
2018-01-20T04:04:22.457Z,999.60
2018-01-20T04:05:22.308Z,999.57
2018-01-20T04:07:15.261Z,999.57
2018-01-20T04:08:15.225Z,999.59
2018-01-20T04:10:08.192Z,999.59
2018-01-20T04:11:08.161Z,999.55
2018-01-20T04:13:01.383Z,999.54
2018-01-20T04:14:01.212Z,999.51
2018-01-20T04:15:54.143Z,999.43
2018-01-20T04:16:54.097Z,999.47
2018-01-20T04:18:46.942Z,999.48
2018-01-20T04:19:46.861Z,999.46
2018-01-20T04:21:39.657Z,999.47
2018-01-20T04:22:39.669Z,999.43
2018-01-20T04:24:32.870Z,999.47
2018-01-20T04:25:32.684Z,999.47
2018-01-20T04:27:25.648Z,999.43
2018-01-20T04:28:25.607Z,999.44
2018-01-20T04:30:18.581Z,999.41
2018-01-20T04:31:18.535Z,999.41
2018-01-20T04:33:11.663Z,999.42
2018-01-20T04:34:11.597Z,999.47
2018-01-20T04:36:04.569Z,999.42
2018-01-20T04:37:04.520Z,999.47
2018-01-20T04:38:57.468Z,999.47
2018-01-20T04:39:57.425Z,999.41
2018-01-20T04:41:50.541Z,999.39
2018-01-20T04:42:50.320Z,999.37
2018-01-20T04:44:43.311Z,999.33
2018-01-20T04:45:43.223Z,999.35
2018-01-20T04:47:36.172Z,999.34
2018-01-20T04:48:36.173Z,999.33
2018-01-20T04:50:29.395Z,999.37
2018-01-20T04:51:29.228Z,999.33
2018-01-20T04:53:22.159Z,999.36
2018-01-20T04:54:22.119Z,999.33
2018-01-20T04:56:15.116Z,999.33
2018-01-20T04:57:15.060Z,999.30
2018-01-20T04:59:07.831Z,999.30
2018-01-20T05:00:07.801Z,999.27
2018-01-20T05:02:00.668Z,999.24
2018-01-20T05:03:00.549Z,999.18
2018-01-20T05:04:53.453Z,999.13
2018-01-20T05:05:53.302Z,999.15
2018-01-20T05:07:46.411Z,999.13
2018-01-20T05:08:46.358Z,999.15
2018-01-20T05:10:39.307Z,999.04
2018-01-20T05:11:39.264Z,999.08
2018-01-20T05:13:32.087Z,999.04
2018-01-20T05:14:32.019Z,999.04
2018-01-20T05:16:24.846Z,999.02
2018-01-20T05:17:24.784Z,999.03
2018-01-20T05:19:17.637Z,998.97
2018-01-20T05:20:17.527Z,999.01
2018-01-20T05:22:10.556Z,998.97
2018-01-20T05:23:10.497Z,999.00
2018-01-20T05:25:03.752Z,998.97
2018-01-20T05:26:03.658Z,998.96
2018-01-20T05:27:56.621Z,998.92
2018-01-20T05:28:56.562Z,998.93
2018-01-20T05:30:49.506Z,998.92
2018-01-20T05:31:49.513Z,998.93
2018-01-20T05:33:42.731Z,998.95
2018-01-20T05:34:42.497Z,998.98
2018-01-20T05:36:35.504Z,998.95
2018-01-20T05:37:35.498Z,998.91
2018-01-20T05:39:28.408Z,998.90
2018-01-20T05:40:28.371Z,998.88
2018-01-20T05:42:21.159Z,998.89
2018-01-20T05:43:21.121Z,998.89
2018-01-20T05:45:14.428Z,998.92
2018-01-20T05:46:14.371Z,998.89
2018-01-20T05:48:07.338Z,998.92
2018-01-20T05:49:07.267Z,998.98
2018-01-20T05:51:00.425Z,998.99
2018-01-20T05:52:00.358Z,999.00
2018-01-20T05:53:53.389Z,999.07
2018-01-20T05:54:53.326Z,999.02
2018-01-20T05:56:46.298Z,999.01
2018-01-20T05:57:46.254Z,999.02
2018-01-20T05:59:39.314Z,999.02
2018-01-20T06:00:39.214Z,998.99
2018-01-20T06:02:32.021Z,998.94
2018-01-20T06:03:31.976Z,998.90
2018-01-20T06:05:24.936Z,998.93
2018-01-20T06:06:24.892Z,998.90
2018-01-20T06:08:18.096Z,998.87
2018-01-20T06:09:17.992Z,998.89
2018-01-20T06:11:11.106Z,998.84
2018-01-20T06:12:11.041Z,998.86
2018-01-20T06:14:03.967Z,998.82
2018-01-20T06:15:03.929Z,998.85
2018-01-20T06:16:57.024Z,998.73
2018-01-20T06:17:56.928Z,998.75
2018-01-20T06:19:49.892Z,998.69
2018-01-20T06:20:49.831Z,998.64
2018-01-20T06:22:42.810Z,998.60
2018-01-20T06:23:42.748Z,998.62
2018-01-20T06:25:35.689Z,998.64
2018-01-20T06:26:35.584Z,998.65
2018-01-20T06:28:28.539Z,998.60
2018-01-20T06:29:28.494Z,998.61
2018-01-20T06:31:21.444Z,998.56
2018-01-20T06:32:21.393Z,998.52
2018-01-20T06:34:14.177Z,998.56
2018-01-20T06:35:14.172Z,998.58
2018-01-20T06:37:07.359Z,998.53
2018-01-20T06:38:07.242Z,998.54
2018-01-20T06:40:00.167Z,998.53
2018-01-20T06:41:00.129Z,998.51
2018-01-20T06:42:53.084Z,998.54
2018-01-20T06:43:53.032Z,998.56
2018-01-20T06:45:46.159Z,998.49
2018-01-20T06:46:46.119Z,998.47
2018-01-20T06:48:39.103Z,998.47
2018-01-20T06:49:39.033Z,998.47
2018-01-20T06:51:32.013Z,998.46
2018-01-20T06:52:31.941Z,998.45
2018-01-20T06:54:24.757Z,998.36
2018-01-20T06:55:24.696Z,998.34
2018-01-20T06:57:17.513Z,998.32
2018-01-20T06:58:17.452Z,998.29
2018-01-20T07:00:10.387Z,998.27
2018-01-20T07:01:10.353Z,998.25
2018-01-20T07:03:03.320Z,998.24
2018-01-20T07:04:03.247Z,998.22
2018-01-20T07:05:56.409Z,998.22
2018-01-20T07:06:56.374Z,998.25
2018-01-20T07:08:49.337Z,998.24
2018-01-20T07:09:49.284Z,998.30
2018-01-20T07:11:42.059Z,998.27
2018-01-20T07:12:42.018Z,998.24
2018-01-20T07:14:35.032Z,998.18
2018-01-20T07:15:34.959Z,998.17
2018-01-20T07:17:27.769Z,998.14
2018-01-20T07:18:27.726Z,998.13
2018-01-20T07:20:20.619Z,998.10
2018-01-20T07:21:20.484Z,998.14
2018-01-20T07:23:13.297Z,998.15
2018-01-20T07:24:13.231Z,998.10
2018-01-20T07:26:06.219Z,998.14
2018-01-20T07:27:06.164Z,998.17
2018-01-20T07:28:59.099Z,998.16
2018-01-20T07:29:59.052Z,998.14
2018-01-20T07:31:51.947Z,998.12
2018-01-20T07:32:51.882Z,998.10
2018-01-20T07:34:44.824Z,998.13
2018-01-20T07:35:44.766Z,998.15
2018-01-20T07:37:37.714Z,998.13
2018-01-20T07:38:37.679Z,998.10
2018-01-20T07:40:30.993Z,998.11
2018-01-20T07:41:30.849Z,998.07
2018-01-20T07:43:23.809Z,998.08
2018-01-20T07:44:23.749Z,998.08
2018-01-20T07:46:16.708Z,998.05
2018-01-20T07:47:16.660Z,998.03
2018-01-20T07:49:09.783Z,997.98
2018-01-20T07:50:09.732Z,998.01
2018-01-20T07:52:02.687Z,997.95
2018-01-20T07:53:02.673Z,997.96
2018-01-20T07:54:55.627Z,997.92
2018-01-20T07:55:55.555Z,997.94
2018-01-20T07:57:48.357Z,997.93
2018-01-20T07:58:48.299Z,997.94
2018-01-20T08:00:41.191Z,997.88
2018-01-20T08:01:41.059Z,997.85
2018-01-20T08:03:34.024Z,997.83
2018-01-20T08:04:33.955Z,997.80
2018-01-20T08:06:26.958Z,997.80
2018-01-20T08:07:26.896Z,997.80
2018-01-20T08:09:19.974Z,997.70
2018-01-20T08:10:19.925Z,997.69
2018-01-20T08:12:12.888Z,997.65
2018-01-20T08:13:12.825Z,997.66
2018-01-20T08:15:05.795Z,997.69
2018-01-20T08:16:05.745Z,997.72
2018-01-20T08:17:58.909Z,997.72
2018-01-20T08:18:58.809Z,997.74
2018-01-20T08:20:51.750Z,997.72
2018-01-20T08:21:51.713Z,997.70
2018-01-20T08:23:44.640Z,997.66
2018-01-20T08:24:44.608Z,997.64
2018-01-20T08:26:37.831Z,997.63
2018-01-20T08:27:37.706Z,997.58
2018-01-20T08:29:30.635Z,997.62
2018-01-20T08:30:30.588Z,997.63
2018-01-20T08:32:23.563Z,997.67
2018-01-20T08:33:23.513Z,997.66
2018-01-20T08:35:16.683Z,997.64
2018-01-20T08:36:16.629Z,997.61
2018-01-20T08:38:09.549Z,997.60
2018-01-20T08:39:09.496Z,997.59
2018-01-20T08:41:02.438Z,997.55
2018-01-20T08:42:02.441Z,997.53
2018-01-20T08:43:55.605Z,997.50
2018-01-20T08:44:55.499Z,997.47
2018-01-20T08:46:48.446Z,997.44
2018-01-20T08:47:48.424Z,997.43
2018-01-20T08:49:41.375Z,997.41
2018-01-20T08:50:41.313Z,997.41
2018-01-20T08:52:34.183Z,997.39
2018-01-20T08:53:34.140Z,997.38
2018-01-20T08:55:27.092Z,997.36
2018-01-20T08:56:27.024Z,997.34
2018-01-20T08:58:20.018Z,997.33
2018-01-20T08:59:19.954Z,997.28
2018-01-20T09:01:12.888Z,997.28
2018-01-20T09:02:12.851Z,997.27
2018-01-20T09:04:05.725Z,997.24
2018-01-20T09:05:05.655Z,997.20
2018-01-20T09:06:58.585Z,997.16
2018-01-20T09:07:58.550Z,997.16
2018-01-20T09:09:51.361Z,997.08
2018-01-20T09:10:51.295Z,997.12
2018-01-20T09:12:44.122Z,997.04
2018-01-20T09:13:44.084Z,997.03
2018-01-20T09:15:37.025Z,997.00
2018-01-20T09:16:36.972Z,996.98
2018-01-20T09:18:29.816Z,996.92
2018-01-20T09:19:29.774Z,996.91
2018-01-20T09:21:22.733Z,996.88
2018-01-20T09:22:22.677Z,996.86
2018-01-20T09:24:15.501Z,996.84
2018-01-20T09:25:15.434Z,996.80
2018-01-20T09:27:08.848Z,996.78
2018-01-20T09:28:08.781Z,996.77
2018-01-20T09:30:01.775Z,996.79
2018-01-20T09:31:01.694Z,996.82
2018-01-20T09:32:54.659Z,996.82
2018-01-20T09:33:54.618Z,996.79
2018-01-20T09:35:47.455Z,996.75
2018-01-20T09:36:47.389Z,996.72
2018-01-20T09:38:40.209Z,996.69
2018-01-20T09:39:40.174Z,996.69
2018-01-20T09:41:33.135Z,996.62
2018-01-20T09:42:33.068Z,996.54
2018-01-20T09:44:26.029Z,996.57
2018-01-20T09:45:26.050Z,996.55
2018-01-20T09:47:19.255Z,996.57
2018-01-20T09:48:19.088Z,996.55
2018-01-20T09:50:12.046Z,996.58
2018-01-20T09:51:11.994Z,996.58
2018-01-20T09:53:04.975Z,996.56
2018-01-20T09:54:04.919Z,996.47
2018-01-20T09:55:58.094Z,996.47
2018-01-20T09:56:58.023Z,996.48
2018-01-20T09:58:51.048Z,996.43
2018-01-20T09:59:50.994Z,996.45
2018-01-20T10:01:43.816Z,996.44
2018-01-20T10:02:43.741Z,996.35
2018-01-20T10:04:36.899Z,996.35
2018-01-20T10:05:36.839Z,996.33
2018-01-20T10:07:29.845Z,996.35
2018-01-20T10:08:29.780Z,996.31
2018-01-20T10:10:22.721Z,996.27
2018-01-20T10:11:22.687Z,996.29
2018-01-20T10:13:15.594Z,996.27
2018-01-20T10:14:15.554Z,996.25
2018-01-20T10:16:08.520Z,996.19
2018-01-20T10:17:08.464Z,996.13
2018-01-20T10:19:01.420Z,996.12
2018-01-20T10:20:01.371Z,996.07
2018-01-20T10:21:54.535Z,996.06
2018-01-20T10:22:54.453Z,996.05
2018-01-20T10:24:47.409Z,995.97
2018-01-20T10:25:47.386Z,995.96
2018-01-20T10:27:40.349Z,995.95
2018-01-20T10:28:40.300Z,995.93
2018-01-20T10:30:33.480Z,995.88
2018-01-20T10:31:33.410Z,995.88
2018-01-20T10:33:26.480Z,995.87
2018-01-20T10:34:26.465Z,995.84
2018-01-20T10:36:19.397Z,995.82
2018-01-20T10:37:19.331Z,995.81
2018-01-20T10:39:12.396Z,995.82
2018-01-20T10:40:12.349Z,995.76
2018-01-20T10:42:05.312Z,995.76
2018-01-20T10:43:05.224Z,995.74
2018-01-20T10:44:58.196Z,995.75
2018-01-20T10:45:58.145Z,995.76
2018-01-20T10:47:50.986Z,995.73
2018-01-20T10:48:50.916Z,995.72
2018-01-20T10:50:43.893Z,995.67
2018-01-20T10:51:43.831Z,995.64
2018-01-20T10:53:36.772Z,995.52
2018-01-20T10:54:36.726Z,995.50
2018-01-20T10:56:29.700Z,995.47
2018-01-20T10:57:29.654Z,995.42
2018-01-20T10:59:22.490Z,995.35
2018-01-20T11:00:22.451Z,995.40
2018-01-20T11:02:15.407Z,995.30
2018-01-20T11:03:15.355Z,995.29
2018-01-20T11:05:08.300Z,995.18
2018-01-20T11:06:08.298Z,995.22
2018-01-20T11:08:01.565Z,995.18
2018-01-20T11:09:01.347Z,995.20
2018-01-20T11:10:54.306Z,995.13
2018-01-20T11:11:54.269Z,995.11
2018-01-20T11:13:47.091Z,995.07
2018-01-20T11:14:47.016Z,995.05
2018-01-20T11:16:39.986Z,995.04
2018-01-20T11:17:39.934Z,995.02
2018-01-20T11:19:32.878Z,994.99
2018-01-20T11:20:32.778Z,994.95
2018-01-20T11:22:25.734Z,994.87
2018-01-20T11:23:25.669Z,994.86
2018-01-20T11:25:18.476Z,994.82
2018-01-20T11:26:18.423Z,994.84
2018-01-20T11:28:11.385Z,994.83
2018-01-20T11:29:11.340Z,994.79
2018-01-20T11:31:04.510Z,994.80
2018-01-20T11:32:04.396Z,994.81
2018-01-20T11:33:57.369Z,994.77
2018-01-20T11:34:57.316Z,994.74
2018-01-20T11:36:50.311Z,994.67
2018-01-20T11:37:50.266Z,994.68
2018-01-20T11:39:43.216Z,994.59
2018-01-20T11:40:43.141Z,994.61
2018-01-20T11:42:36.097Z,994.51
2018-01-20T11:43:36.065Z,994.52
2018-01-20T11:45:29.017Z,994.45
2018-01-20T11:46:28.961Z,994.43
2018-01-20T11:48:22.091Z,994.36
2018-01-20T11:49:22.031Z,994.34
2018-01-20T11:51:14.871Z,994.30
2018-01-20T11:52:14.791Z,994.30
2018-01-20T11:54:07.739Z,994.26
2018-01-20T11:55:07.709Z,994.19
2018-01-20T11:57:00.650Z,994.17
2018-01-20T11:58:00.599Z,994.12
2018-01-20T11:59:53.436Z,994.11
2018-01-20T12:00:53.361Z,994.10
2018-01-20T12:02:46.366Z,994.01
2018-01-20T12:03:46.319Z,993.98
2018-01-20T12:05:39.240Z,993.94
2018-01-20T12:06:39.163Z,993.90
2018-01-20T12:08:32.138Z,993.84
2018-01-20T12:09:32.071Z,993.79
2018-01-20T12:11:25.208Z,993.77
2018-01-20T12:12:25.139Z,993.75
2018-01-20T12:14:18.105Z,993.67
2018-01-20T12:15:18.059Z,993.66
2018-01-20T12:17:11.021Z,993.60
2018-01-20T12:18:10.970Z,993.55
2018-01-20T12:20:03.794Z,993.50
2018-01-20T12:21:03.779Z,993.45
2018-01-20T12:22:56.594Z,993.37
2018-01-20T12:23:56.515Z,993.38
2018-01-20T12:25:49.489Z,993.32
2018-01-20T12:26:49.430Z,993.30
2018-01-20T12:28:42.412Z,993.22
2018-01-20T12:29:42.410Z,993.22
2018-01-20T12:31:35.523Z,993.19
2018-01-20T12:32:35.460Z,993.12
2018-01-20T12:34:28.595Z,993.08
2018-01-20T12:35:28.584Z,993.11
2018-01-20T12:37:21.761Z,993.04
2018-01-20T12:38:21.700Z,993.05
2018-01-20T12:40:14.656Z,992.99
2018-01-20T12:41:14.619Z,992.97
2018-01-20T12:43:07.605Z,992.94
2018-01-20T12:44:07.556Z,992.93
2018-01-20T12:46:00.566Z,992.86
2018-01-20T12:47:00.467Z,992.89
2018-01-20T12:48:53.467Z,992.82
2018-01-20T12:49:53.399Z,992.80
2018-01-20T12:51:46.209Z,992.76
2018-01-20T12:52:46.164Z,992.71
2018-01-20T12:54:38.960Z,992.68
2018-01-20T12:55:38.917Z,992.63
2018-01-20T12:57:32.135Z,992.58
2018-01-20T12:58:31.989Z,992.57
2018-01-20T13:00:24.814Z,992.48
2018-01-20T13:01:24.756Z,992.49
2018-01-20T13:03:17.725Z,992.43
2018-01-20T13:04:17.672Z,992.41
2018-01-20T13:06:10.895Z,992.34
2018-01-20T13:07:10.731Z,992.32
2018-01-20T13:09:03.707Z,992.26
2018-01-20T13:10:03.645Z,992.23
2018-01-20T13:11:56.660Z,992.18
2018-01-20T13:12:56.589Z,992.19
2018-01-20T13:14:49.910Z,992.13
2018-01-20T13:15:49.834Z,992.06
2018-01-20T13:17:42.651Z,992.09
2018-01-20T13:18:42.589Z,992.07
2018-01-20T13:20:35.565Z,992.03
2018-01-20T13:21:35.499Z,991.99
2018-01-20T13:23:28.652Z,991.96
2018-01-20T13:24:28.596Z,991.96
2018-01-20T13:26:21.574Z,991.92
2018-01-20T13:27:21.491Z,991.90
2018-01-20T13:29:14.464Z,991.84
2018-01-20T13:30:14.417Z,991.82
2018-01-20T13:32:07.461Z,991.74
2018-01-20T13:33:07.267Z,991.73
2018-01-20T13:35:00.225Z,991.75
2018-01-20T13:36:00.191Z,991.70
2018-01-20T13:37:53.304Z,991.63
2018-01-20T13:38:53.230Z,991.58
2018-01-20T13:40:46.165Z,991.59
2018-01-20T13:41:46.126Z,991.54
2018-01-20T13:43:39.252Z,991.55
2018-01-20T13:44:39.180Z,991.58
2018-01-20T13:46:32.117Z,991.58
2018-01-20T13:47:32.076Z,991.57
2018-01-20T13:49:25.192Z,991.53
2018-01-20T13:50:25.125Z,991.50
2018-01-20T13:52:18.077Z,991.48
2018-01-20T13:53:18.032Z,991.46
2018-01-20T13:55:10.995Z,991.47
2018-01-20T13:56:10.951Z,991.46
2018-01-20T13:58:03.752Z,991.40
2018-01-20T13:59:03.715Z,991.39
2018-01-20T14:00:56.691Z,991.37
2018-01-20T14:01:56.500Z,991.38
2018-01-20T14:03:49.470Z,991.37
2018-01-20T14:04:49.414Z,991.34
2018-01-20T14:06:42.366Z,991.27
2018-01-20T14:07:42.352Z,991.25
2018-01-20T14:09:35.125Z,991.18
2018-01-20T14:10:35.070Z,991.16
2018-01-20T14:12:27.907Z,991.12
2018-01-20T14:13:27.826Z,991.06
2018-01-20T14:15:20.966Z,991.06
2018-01-20T14:16:20.631Z,991.02
2018-01-20T14:18:13.600Z,991.04
2018-01-20T14:19:13.551Z,991.03
2018-01-20T14:21:06.533Z,991.07
2018-01-20T14:22:06.509Z,991.06
2018-01-20T14:23:59.631Z,991.05
2018-01-20T14:24:59.585Z,991.04
2018-01-20T14:26:52.532Z,990.99
2018-01-20T14:27:52.493Z,990.97
2018-01-20T14:29:45.457Z,990.98
2018-01-20T14:30:45.392Z,990.98
2018-01-20T14:32:38.221Z,990.97
2018-01-20T14:33:38.156Z,990.93
2018-01-20T14:35:31.472Z,990.96
2018-01-20T14:36:31.443Z,990.96
2018-01-20T14:38:24.411Z,990.92
2018-01-20T14:39:24.352Z,990.86
2018-01-20T14:41:17.546Z,990.89
2018-01-20T14:42:17.502Z,990.85
2018-01-20T14:44:10.486Z,990.86
2018-01-20T14:45:10.435Z,990.86
2018-01-20T14:47:03.740Z,990.87
2018-01-20T14:48:03.426Z,990.85
2018-01-20T14:49:56.411Z,990.80
2018-01-20T14:50:56.341Z,990.78
2018-01-20T14:52:49.342Z,990.78
2018-01-20T14:53:49.332Z,990.73
2018-01-20T14:55:42.475Z,990.75
2018-01-20T14:56:42.392Z,990.69
2018-01-20T14:58:35.332Z,990.69
2018-01-20T14:59:35.328Z,990.71
2018-01-20T15:01:28.263Z,990.74
2018-01-20T15:02:28.214Z,990.72
2018-01-20T15:04:21.381Z,990.72
2018-01-20T15:05:21.278Z,990.71
2018-01-20T15:07:14.258Z,990.68
2018-01-20T15:08:14.228Z,990.66
2018-01-20T15:10:07.071Z,990.61
2018-01-20T15:11:06.986Z,990.62
2018-01-20T15:12:59.815Z,990.64
2018-01-20T15:13:59.746Z,990.60
2018-01-20T15:15:52.850Z,990.59
2018-01-20T15:16:52.889Z,990.59
2018-01-20T15:18:45.693Z,990.61
2018-01-20T15:19:45.685Z,990.61
2018-01-20T15:21:38.491Z,990.54
2018-01-20T15:22:38.458Z,990.57
2018-01-20T15:24:31.559Z,990.51
2018-01-20T15:25:31.502Z,990.50
2018-01-20T15:27:24.472Z,990.46
2018-01-20T15:28:24.413Z,990.46
2018-01-20T15:30:17.361Z,990.39
2018-01-20T15:31:17.333Z,990.38
2018-01-20T15:33:10.568Z,990.31
2018-01-20T15:34:10.424Z,990.36
2018-01-20T15:36:03.422Z,990.31
2018-01-20T15:37:03.346Z,990.29
2018-01-20T15:38:56.296Z,990.25
2018-01-20T15:39:56.250Z,990.28
2018-01-20T15:41:49.073Z,990.25
2018-01-20T15:42:49.011Z,990.24
2018-01-20T15:44:42.023Z,990.21
2018-01-20T15:45:41.983Z,990.23
2018-01-20T15:47:34.959Z,990.25
2018-01-20T15:48:34.877Z,990.20
2018-01-20T15:50:27.870Z,990.21
2018-01-20T15:51:27.790Z,990.17
2018-01-20T15:53:20.636Z,990.12
2018-01-20T15:54:20.553Z,990.09
2018-01-20T15:56:13.501Z,990.08
2018-01-20T15:57:13.302Z,990.08
2018-01-20T15:59:06.280Z,990.12
2018-01-20T16:00:06.252Z,990.08
2018-01-20T16:01:59.207Z,990.07
2018-01-20T16:02:59.155Z,990.05
2018-01-20T16:04:52.301Z,990.01
2018-01-20T16:05:52.242Z,989.97
2018-01-20T16:07:45.178Z,989.91
2018-01-20T16:08:45.172Z,989.95
2018-01-20T16:10:38.107Z,989.94
2018-01-20T16:11:38.052Z,989.88
2018-01-20T16:13:30.975Z,989.85
2018-01-20T16:14:30.937Z,989.82
2018-01-20T16:16:23.950Z,989.81
2018-01-20T16:17:23.901Z,989.82
2018-01-20T16:19:16.850Z,989.71
2018-01-20T16:20:16.855Z,989.69
2018-01-20T16:22:09.630Z,989.70
2018-01-20T16:23:09.557Z,989.68
2018-01-20T16:25:02.408Z,989.71
2018-01-20T16:26:02.366Z,989.75
2018-01-20T16:27:55.336Z,989.72
2018-01-20T16:28:55.284Z,989.73
2018-01-20T16:30:48.238Z,989.75
2018-01-20T16:31:48.187Z,989.77
2018-01-20T16:33:41.137Z,989.72
2018-01-20T16:34:41.087Z,989.74
2018-01-20T16:36:34.159Z,989.72
2018-01-20T16:37:33.923Z,989.71
2018-01-20T16:39:26.874Z,989.73
2018-01-20T16:40:26.879Z,989.79
2018-01-20T16:42:19.820Z,989.83
2018-01-20T16:43:19.752Z,989.84
2018-01-20T16:45:12.986Z,989.95
2018-01-20T16:46:12.910Z,990.00
2018-01-20T16:48:05.864Z,990.01
2018-01-20T16:49:05.825Z,990.06
2018-01-20T16:50:58.754Z,990.09
2018-01-20T16:51:58.706Z,990.07
2018-01-20T16:53:51.511Z,990.00
2018-01-20T16:54:51.497Z,990.00
2018-01-20T16:56:44.380Z,989.95
2018-01-20T16:57:44.262Z,989.92
2018-01-20T16:59:37.232Z,989.89
2018-01-20T17:00:37.176Z,989.94
2018-01-20T17:02:29.983Z,989.94
2018-01-20T17:03:29.927Z,989.99
2018-01-20T17:05:22.905Z,989.97
2018-01-20T17:06:22.824Z,989.96
2018-01-20T17:08:15.672Z,990.09
2018-01-20T17:09:15.613Z,990.03
2018-01-20T17:11:08.411Z,990.06
2018-01-20T17:12:08.359Z,990.05
2018-01-20T17:14:01.347Z,990.05
2018-01-20T17:15:01.281Z,990.05
2018-01-20T17:16:54.223Z,990.04
2018-01-20T17:17:54.211Z,990.00
2018-01-20T17:19:47.463Z,989.98
2018-01-20T17:20:47.289Z,989.98
2018-01-20T17:22:40.098Z,989.98
2018-01-20T17:23:40.051Z,989.98
2018-01-20T17:25:33.007Z,989.98
2018-01-20T17:26:32.957Z,990.02
2018-01-20T17:28:25.891Z,990.01
2018-01-20T17:29:25.851Z,990.04
2018-01-20T17:31:18.728Z,990.01
2018-01-20T17:32:18.678Z,989.95
2018-01-20T17:34:11.648Z,989.93
2018-01-20T17:35:11.572Z,989.91
2018-01-20T17:37:04.533Z,989.87
2018-01-20T17:38:04.490Z,989.89
2018-01-20T17:39:57.727Z,989.88
2018-01-20T17:40:57.591Z,989.90
2018-01-20T17:42:50.543Z,989.90
2018-01-20T17:43:50.507Z,989.93
2018-01-20T17:45:43.461Z,990.02
2018-01-20T17:46:43.415Z,990.08
2018-01-20T17:48:36.580Z,990.06
2018-01-20T17:49:36.524Z,990.08
2018-01-20T17:51:29.483Z,990.16
2018-01-20T17:52:29.419Z,990.11